sensor_id;sensor_type;location;lat;lon;timestamp;temperature;humidity
30097;DHT22;16915;51.466;3.610;2022-09-03T00:01:19;19.80;93.00
30097;DHT22;16915;51.466;3.610;2022-09-03T00:03:54;19.80;93.20
30097;DHT22;16915;51.466;3.610;2022-09-03T00:06:39;19.80;93.10
30097;DHT22;16915;51.466;3.610;2022-09-03T00:09:16;19.70;93.10
30097;DHT22;16915;51.466;3.610;2022-09-03T00:11:51;19.70;93.20
30097;DHT22;16915;51.466;3.610;2022-09-03T00:14:31;19.70;93.20
30097;DHT22;16915;51.466;3.610;2022-09-03T00:17:17;19.70;93.20
30097;DHT22;16915;51.466;3.610;2022-09-03T00:19:53;19.60;93.40
30097;DHT22;16915;51.466;3.610;2022-09-03T00:22:25;19.60;93.60
30097;DHT22;16915;51.466;3.610;2022-09-03T00:24:53;19.50;93.70
30097;DHT22;16915;51.466;3.610;2022-09-03T00:27:26;19.50;93.80
30097;DHT22;16915;51.466;3.610;2022-09-03T00:30:14;19.50;94.10
30097;DHT22;16915;51.466;3.610;2022-09-03T00:35:29;19.40;94.20
30097;DHT22;16915;51.466;3.610;2022-09-03T00:37:56;19.40;94.40
30097;DHT22;16915;51.466;3.610;2022-09-03T00:43:23;19.50;94.70
30097;DHT22;16915;51.466;3.610;2022-09-03T00:45:59;19.50;94.50
30097;DHT22;16915;51.466;3.610;2022-09-03T00:48:35;19.50;94.70
30097;DHT22;16915;51.466;3.610;2022-09-03T00:51:23;19.50;94.70
30097;DHT22;16915;51.466;3.610;2022-09-03T00:56:52;19.60;94.30
30097;DHT22;16915;51.466;3.610;2022-09-03T01:02:16;19.70;94.50
30097;DHT22;16915;51.466;3.610;2022-09-03T01:10:38;19.90;94.50
30097;DHT22;16915;51.466;3.610;2022-09-03T01:16:06;20.00;94.20
30097;DHT22;16915;51.466;3.610;2022-09-03T01:18:50;20.00;94.10
30097;DHT22;16915;51.466;3.610;2022-09-03T01:30:11;20.10;94.40
30097;DHT22;16915;51.466;3.610;2022-09-03T01:38:00;20.10;95.10
30097;DHT22;16915;51.466;3.610;2022-09-03T01:40:49;20.10;95.40
30097;DHT22;16915;51.466;3.610;2022-09-03T01:48:30;20.00;95.80
30097;DHT22;16915;51.466;3.610;2022-09-03T01:51:05;20.00;96.10
30097;DHT22;16915;51.466;3.610;2022-09-03T01:59:43;20.00;97.40
30097;DHT22;16915;51.466;3.610;2022-09-03T02:02:22;19.90;97.90
30097;DHT22;16915;51.466;3.610;2022-09-03T02:04:59;19.80;97.80
30097;DHT22;16915;51.466;3.610;2022-09-03T02:07:31;19.80;98.50
30097;DHT22;16915;51.466;3.610;2022-09-03T02:09:59;19.80;99.10
30097;DHT22;16915;51.466;3.610;2022-09-03T02:12:25;19.70;99.20
30097;DHT22;16915;51.466;3.610;2022-09-03T02:14:54;19.70;98.80
30097;DHT22;16915;51.466;3.610;2022-09-03T02:17:20;19.70;98.40
30097;DHT22;16915;51.466;3.610;2022-09-03T02:19:45;19.60;98.10
30097;DHT22;16915;51.466;3.610;2022-09-03T02:22:12;19.60;97.80
30097;DHT22;16915;51.466;3.610;2022-09-03T02:24:37;19.60;97.90
30097;DHT22;16915;51.466;3.610;2022-09-03T02:27:03;19.50;97.90
30097;DHT22;16915;51.466;3.610;2022-09-03T02:29:29;19.50;98.10
30097;DHT22;16915;51.466;3.610;2022-09-03T02:31:55;19.50;98.20
30097;DHT22;16915;51.466;3.610;2022-09-03T02:34:22;19.40;98.50
30097;DHT22;16915;51.466;3.610;2022-09-03T02:36:48;19.30;98.40
30097;DHT22;16915;51.466;3.610;2022-09-03T02:39:15;19.30;98.30
30097;DHT22;16915;51.466;3.610;2022-09-03T02:41:41;19.30;98.20
30097;DHT22;16915;51.466;3.610;2022-09-03T02:44:28;19.20;98.10
30097;DHT22;16915;51.466;3.610;2022-09-03T02:47:07;19.20;98.20
30097;DHT22;16915;51.466;3.610;2022-09-03T02:49:33;19.20;98.20
30097;DHT22;16915;51.466;3.610;2022-09-03T02:52:01;19.20;98.40
30097;DHT22;16915;51.466;3.610;2022-09-03T02:54:30;19.20;98.40
30097;DHT22;16915;51.466;3.610;2022-09-03T02:56:58;19.20;98.50
30097;DHT22;16915;51.466;3.610;2022-09-03T02:59:24;19.10;98.60
30097;DHT22;16915;51.466;3.610;2022-09-03T03:01:53;19.10;98.90
30097;DHT22;16915;51.466;3.610;2022-09-03T03:04:20;19.10;99.10
30097;DHT22;16915;51.466;3.610;2022-09-03T03:06:46;19.10;99.30
30097;DHT22;16915;51.466;3.610;2022-09-03T03:09:12;19.10;99.60
30097;DHT22;16915;51.466;3.610;2022-09-03T03:11:37;19.00;99.90
30097;DHT22;16915;51.466;3.610;2022-09-03T03:14:04;19.00;99.90
30097;DHT22;16915;51.466;3.610;2022-09-03T03:16:30;19.00;99.90
30097;DHT22;16915;51.466;3.610;2022-09-03T03:18:56;19.00;99.90
30097;DHT22;16915;51.466;3.610;2022-09-03T03:21:22;19.00;99.90
30097;DHT22;16915;51.466;3.610;2022-09-03T03:23:48;19.00;99.90
30097;DHT22;16915;51.466;3.610;2022-09-03T03:26:16;18.90;99.90
30097;DHT22;16915;51.466;3.610;2022-09-03T03:28:45;18.90;99.90
30097;DHT22;16915;51.466;3.610;2022-09-03T03:31:15;18.80;99.90
30097;DHT22;16915;51.466;3.610;2022-09-03T03:33:41;18.80;99.90
30097;DHT22;16915;51.466;3.610;2022-09-03T03:36:10;18.80;99.90
30097;DHT22;16915;51.466;3.610;2022-09-03T03:38:36;18.80;99.90
30097;DHT22;16915;51.466;3.610;2022-09-03T03:41:10;18.70;99.90
30097;DHT22;16915;51.466;3.610;2022-09-03T03:43:36;18.70;99.90
30097;DHT22;16915;51.466;3.610;2022-09-03T03:46:02;18.70;99.90
30097;DHT22;16915;51.466;3.610;2022-09-03T03:48:29;18.60;99.90
30097;DHT22;16915;51.466;3.610;2022-09-03T03:50:59;18.60;99.90
30097;DHT22;16915;51.466;3.610;2022-09-03T03:53:25;18.50;99.90
30097;DHT22;16915;51.466;3.610;2022-09-03T03:55:59;18.50;99.90
30097;DHT22;16915;51.466;3.610;2022-09-03T03:58:27;18.40;99.90
30097;DHT22;16915;51.466;3.610;2022-09-03T04:00:54;18.40;99.90
30097;DHT22;16915;51.466;3.610;2022-09-03T04:03:20;18.40;99.90
30097;DHT22;16915;51.466;3.610;2022-09-03T04:05:58;18.40;99.90
30097;DHT22;16915;51.466;3.610;2022-09-03T04:08:25;18.40;99.90
30097;DHT22;16915;51.466;3.610;2022-09-03T04:10:51;18.40;99.90
30097;DHT22;16915;51.466;3.610;2022-09-03T04:13:17;18.40;99.90
30097;DHT22;16915;51.466;3.610;2022-09-03T04:15:43;18.40;99.90
30097;DHT22;16915;51.466;3.610;2022-09-03T04:18:08;18.40;99.90
30097;DHT22;16915;51.466;3.610;2022-09-03T04:20:37;18.40;99.90
30097;DHT22;16915;51.466;3.610;2022-09-03T04:23:04;18.40;99.90
30097;DHT22;16915;51.466;3.610;2022-09-03T04:25:30;18.40;99.90
30097;DHT22;16915;51.466;3.610;2022-09-03T04:27:56;18.30;99.90
30097;DHT22;16915;51.466;3.610;2022-09-03T04:30:22;18.30;99.90
30097;DHT22;16915;51.466;3.610;2022-09-03T04:32:51;18.30;99.90
30097;DHT22;16915;51.466;3.610;2022-09-03T04:35:21;18.30;99.90
30097;DHT22;16915;51.466;3.610;2022-09-03T04:37:48;18.20;99.90
30097;DHT22;16915;51.466;3.610;2022-09-03T04:40:13;18.30;99.90
30097;DHT22;16915;51.466;3.610;2022-09-03T04:42:39;18.30;99.90
30097;DHT22;16915;51.466;3.610;2022-09-03T04:45:05;18.30;99.90
30097;DHT22;16915;51.466;3.610;2022-09-03T04:47:31;18.40;99.90
30097;DHT22;16915;51.466;3.610;2022-09-03T04:49:58;18.40;99.90
30097;DHT22;16915;51.466;3.610;2022-09-03T04:52:27;18.50;99.90
30097;DHT22;16915;51.466;3.610;2022-09-03T04:54:56;18.50;99.90
30097;DHT22;16915;51.466;3.610;2022-09-03T04:57:21;18.50;99.90
30097;DHT22;16915;51.466;3.610;2022-09-03T04:59:47;18.50;99.90
30097;DHT22;16915;51.466;3.610;2022-09-03T05:02:12;18.60;99.90
30097;DHT22;16915;51.466;3.610;2022-09-03T05:04:40;18.60;99.90
30097;DHT22;16915;51.466;3.610;2022-09-03T05:07:05;18.60;99.90
30097;DHT22;16915;51.466;3.610;2022-09-03T05:09:31;18.70;99.90
30097;DHT22;16915;51.466;3.610;2022-09-03T05:11:57;18.60;99.90
30097;DHT22;16915;51.466;3.610;2022-09-03T05:14:22;18.70;99.90
30097;DHT22;16915;51.466;3.610;2022-09-03T05:16:48;18.70;99.90
30097;DHT22;16915;51.466;3.610;2022-09-03T05:19:14;18.70;99.90
30097;DHT22;16915;51.466;3.610;2022-09-03T05:21:43;18.70;99.90
30097;DHT22;16915;51.466;3.610;2022-09-03T05:24:09;18.60;99.90
30097;DHT22;16915;51.466;3.610;2022-09-03T05:26:37;18.70;99.90
30097;DHT22;16915;51.466;3.610;2022-09-03T05:29:04;18.70;99.90
30097;DHT22;16915;51.466;3.610;2022-09-03T05:31:36;18.70;99.90
30097;DHT22;16915;51.466;3.610;2022-09-03T05:34:05;18.70;99.90
30097;DHT22;16915;51.466;3.610;2022-09-03T05:36:36;18.70;99.90
30097;DHT22;16915;51.466;3.610;2022-09-03T05:39:04;18.70;99.90
30097;DHT22;16915;51.466;3.610;2022-09-03T05:41:29;18.70;99.90
30097;DHT22;16915;51.466;3.610;2022-09-03T05:43:56;18.70;99.90
30097;DHT22;16915;51.466;3.610;2022-09-03T05:46:29;18.70;99.90
30097;DHT22;16915;51.466;3.610;2022-09-03T05:49:06;18.70;99.90
30097;DHT22;16915;51.466;3.610;2022-09-03T05:51:33;18.70;99.90
30097;DHT22;16915;51.466;3.610;2022-09-03T05:53:59;18.80;99.90
30097;DHT22;16915;51.466;3.610;2022-09-03T05:56:27;18.80;99.90
30097;DHT22;16915;51.466;3.610;2022-09-03T05:58:55;18.80;99.90
30097;DHT22;16915;51.466;3.610;2022-09-03T06:01:23;18.80;99.90
30097;DHT22;16915;51.466;3.610;2022-09-03T06:03:57;18.80;99.90
30097;DHT22;16915;51.466;3.610;2022-09-03T06:06:24;18.80;99.90
30097;DHT22;16915;51.466;3.610;2022-09-03T06:08:51;18.80;99.90
30097;DHT22;16915;51.466;3.610;2022-09-03T06:11:17;18.70;99.90
30097;DHT22;16915;51.466;3.610;2022-09-03T06:13:43;18.60;99.90
30097;DHT22;16915;51.466;3.610;2022-09-03T06:16:14;18.60;99.90
30097;DHT22;16915;51.466;3.610;2022-09-03T06:18:40;18.60;99.90
30097;DHT22;16915;51.466;3.610;2022-09-03T06:21:06;18.60;99.90
30097;DHT22;16915;51.466;3.610;2022-09-03T06:23:33;18.60;99.90
30097;DHT22;16915;51.466;3.610;2022-09-03T06:28:31;18.80;99.90
30097;DHT22;16915;51.466;3.610;2022-09-03T06:30:59;18.90;99.90
30097;DHT22;16915;51.466;3.610;2022-09-03T06:33:25;18.90;99.90
30097;DHT22;16915;51.466;3.610;2022-09-03T06:35:53;18.90;99.90
30097;DHT22;16915;51.466;3.610;2022-09-03T06:38:23;19.00;99.90
30097;DHT22;16915;51.466;3.610;2022-09-03T06:40:57;19.00;99.90
30097;DHT22;16915;51.466;3.610;2022-09-03T06:43:27;19.10;99.90
30097;DHT22;16915;51.466;3.610;2022-09-03T06:46:02;19.30;99.90
30097;DHT22;16915;51.466;3.610;2022-09-03T06:48:30;19.30;99.90
30097;DHT22;16915;51.466;3.610;2022-09-03T06:51:07;19.40;99.90
30097;DHT22;16915;51.466;3.610;2022-09-03T06:53:35;19.50;99.90
30097;DHT22;16915;51.466;3.610;2022-09-03T06:56:04;19.50;99.90
30097;DHT22;16915;51.466;3.610;2022-09-03T06:58:34;19.50;99.90
30097;DHT22;16915;51.466;3.610;2022-09-03T07:01:04;19.60;99.90
30097;DHT22;16915;51.466;3.610;2022-09-03T07:03:31;19.60;99.90
30097;DHT22;16915;51.466;3.610;2022-09-03T07:06:05;19.70;99.90
30097;DHT22;16915;51.466;3.610;2022-09-03T07:08:32;19.90;99.90
30097;DHT22;16915;51.466;3.610;2022-09-03T07:10:59;19.90;99.90
30097;DHT22;16915;51.466;3.610;2022-09-03T07:13:34;20.00;99.90
30097;DHT22;16915;51.466;3.610;2022-09-03T07:16:21;20.00;99.90
30097;DHT22;16915;51.466;3.610;2022-09-03T07:18:48;20.00;99.90
30097;DHT22;16915;51.466;3.610;2022-09-03T07:21:16;20.10;99.90
30097;DHT22;16915;51.466;3.610;2022-09-03T07:23:42;20.20;99.90
30097;DHT22;16915;51.466;3.610;2022-09-03T07:26:11;20.20;99.90
30097;DHT22;16915;51.466;3.610;2022-09-03T07:28:39;20.30;99.90
30097;DHT22;16915;51.466;3.610;2022-09-03T07:31:10;20.30;99.90
30097;DHT22;16915;51.466;3.610;2022-09-03T07:33:37;20.40;99.90
30097;DHT22;16915;51.466;3.610;2022-09-03T07:36:08;20.40;99.90
30097;DHT22;16915;51.466;3.610;2022-09-03T07:38:35;20.50;99.90
30097;DHT22;16915;51.466;3.610;2022-09-03T07:41:03;20.60;99.90
30097;DHT22;16915;51.466;3.610;2022-09-03T07:43:35;20.70;99.90
30097;DHT22;16915;51.466;3.610;2022-09-03T07:46:03;20.70;99.90
30097;DHT22;16915;51.466;3.610;2022-09-03T07:48:29;20.80;99.90
30097;DHT22;16915;51.466;3.610;2022-09-03T07:50:58;20.80;99.90
30097;DHT22;16915;51.466;3.610;2022-09-03T07:53:26;20.80;99.90
30097;DHT22;16915;51.466;3.610;2022-09-03T07:55:53;20.80;99.90
30097;DHT22;16915;51.466;3.610;2022-09-03T07:58:18;20.90;99.90
30097;DHT22;16915;51.466;3.610;2022-09-03T08:00:49;21.10;99.90
30097;DHT22;16915;51.466;3.610;2022-09-03T08:03:14;21.30;99.90
30097;DHT22;16915;51.466;3.610;2022-09-03T08:05:41;21.40;99.90
30097;DHT22;16915;51.466;3.610;2022-09-03T08:08:06;21.60;99.90
30097;DHT22;16915;51.466;3.610;2022-09-03T08:10:35;21.80;99.90
30097;DHT22;16915;51.466;3.610;2022-09-03T08:13:03;21.90;99.90
30097;DHT22;16915;51.466;3.610;2022-09-03T08:15:32;22.00;99.90
30097;DHT22;16915;51.466;3.610;2022-09-03T08:17:59;22.10;99.90
30097;DHT22;16915;51.466;3.610;2022-09-03T08:20:25;22.10;99.90
30097;DHT22;16915;51.466;3.610;2022-09-03T08:23:09;22.20;99.90
30097;DHT22;16915;51.466;3.610;2022-09-03T08:25:34;22.30;99.90
30097;DHT22;16915;51.466;3.610;2022-09-03T08:28:00;22.40;99.90
30097;DHT22;16915;51.466;3.610;2022-09-03T08:30:26;22.50;99.90
30097;DHT22;16915;51.466;3.610;2022-09-03T08:32:53;22.60;99.90
30097;DHT22;16915;51.466;3.610;2022-09-03T08:35:19;22.70;99.90
30097;DHT22;16915;51.466;3.610;2022-09-03T08:37:45;22.80;99.90
30097;DHT22;16915;51.466;3.610;2022-09-03T08:40:14;22.90;99.90
30097;DHT22;16915;51.466;3.610;2022-09-03T08:45:34;23.50;99.90
30097;DHT22;16915;51.466;3.610;2022-09-03T08:48:10;23.60;99.90
30097;DHT22;16915;51.466;3.610;2022-09-03T08:50:44;23.60;99.90
30097;DHT22;16915;51.466;3.610;2022-09-03T08:53:35;23.60;99.90
30097;DHT22;16915;51.466;3.610;2022-09-03T08:56:11;23.70;99.90
30097;DHT22;16915;51.466;3.610;2022-09-03T08:58:38;23.70;99.90
30097;DHT22;16915;51.466;3.610;2022-09-03T09:06:57;24.10;99.90
30097;DHT22;16915;51.466;3.610;2022-09-03T09:09:52;24.20;99.90
30097;DHT22;16915;51.466;3.610;2022-09-03T09:12:34;24.30;99.90
30097;DHT22;16915;51.466;3.610;2022-09-03T09:15:10;24.20;99.90
30097;DHT22;16915;51.466;3.610;2022-09-03T09:17:58;24.20;99.90
30097;DHT22;16915;51.466;3.610;2022-09-03T09:20:38;23.90;99.90
30097;DHT22;16915;51.466;3.610;2022-09-03T09:23:12;23.90;99.90
30097;DHT22;16915;51.466;3.610;2022-09-03T09:25:49;24.00;99.90
30097;DHT22;16915;51.466;3.610;2022-09-03T09:28:23;24.10;99.90
30097;DHT22;16915;51.466;3.610;2022-09-03T09:30:54;24.30;99.90
30097;DHT22;16915;51.466;3.610;2022-09-03T09:33:21;24.40;99.90
30097;DHT22;16915;51.466;3.610;2022-09-03T09:35:49;24.50;99.90
30097;DHT22;16915;51.466;3.610;2022-09-03T09:38:25;24.60;99.90
30097;DHT22;16915;51.466;3.610;2022-09-03T09:40:51;24.70;99.90
30097;DHT22;16915;51.466;3.610;2022-09-03T09:43:18;25.00;99.90
30097;DHT22;16915;51.466;3.610;2022-09-03T09:45:48;25.00;99.90
30097;DHT22;16915;51.466;3.610;2022-09-03T09:48:29;25.00;99.90
30097;DHT22;16915;51.466;3.610;2022-09-03T09:51:09;25.00;99.90
30097;DHT22;16915;51.466;3.610;2022-09-03T09:53:35;25.20;99.90
30097;DHT22;16915;51.466;3.610;2022-09-03T09:56:01;25.40;99.90
30097;DHT22;16915;51.466;3.610;2022-09-03T09:58:28;25.50;99.90
30097;DHT22;16915;51.466;3.610;2022-09-03T10:01:11;25.60;99.90
30097;DHT22;16915;51.466;3.610;2022-09-03T10:03:53;25.70;99.90
30097;DHT22;16915;51.466;3.610;2022-09-03T10:06:23;25.70;99.90
30097;DHT22;16915;51.466;3.610;2022-09-03T10:09:11;25.80;99.90
30097;DHT22;16915;51.466;3.610;2022-09-03T10:11:40;26.00;99.90
30097;DHT22;16915;51.466;3.610;2022-09-03T10:14:27;26.20;99.90
30097;DHT22;16915;51.466;3.610;2022-09-03T10:17:29;26.60;99.90
30097;DHT22;16915;51.466;3.610;2022-09-03T10:20:15;26.60;99.90
30097;DHT22;16915;51.466;3.610;2022-09-03T10:23:17;26.40;99.90
30097;DHT22;16915;51.466;3.610;2022-09-03T10:26:01;26.40;99.90
30097;DHT22;16915;51.466;3.610;2022-09-03T10:28:32;26.90;99.90
30097;DHT22;16915;51.466;3.610;2022-09-03T10:31:22;27.30;99.90
30097;DHT22;16915;51.466;3.610;2022-09-03T10:34:33;27.70;99.90
30097;DHT22;16915;51.466;3.610;2022-09-03T10:39:40;28.10;99.70
30097;DHT22;16915;51.466;3.610;2022-09-03T10:48:18;29.30;98.50
30097;DHT22;16915;51.466;3.610;2022-09-03T10:58:20;30.90;95.80
30097;DHT22;16915;51.466;3.610;2022-09-03T11:01:02;31.10;95.30
30097;DHT22;16915;51.466;3.610;2022-09-03T11:03:37;31.20;94.60
30097;DHT22;16915;51.466;3.610;2022-09-03T11:06:09;31.50;93.70
30097;DHT22;16915;51.466;3.610;2022-09-03T11:08:43;31.20;93.50
30097;DHT22;16915;51.466;3.610;2022-09-03T11:11:16;30.90;93.80
30097;DHT22;16915;51.466;3.610;2022-09-03T11:14:14;30.40;94.70
30097;DHT22;16915;51.466;3.610;2022-09-03T11:16:48;30.40;95.00
30097;DHT22;16915;51.466;3.610;2022-09-03T11:19:18;30.10;94.30
30097;DHT22;16915;51.466;3.610;2022-09-03T11:21:45;29.70;95.40
30097;DHT22;16915;51.466;3.610;2022-09-03T11:24:22;29.80;94.90
30097;DHT22;16915;51.466;3.610;2022-09-03T11:30:05;30.00;95.90
30097;DHT22;16915;51.466;3.610;2022-09-03T11:32:55;30.20;94.70
30097;DHT22;16915;51.466;3.610;2022-09-03T11:40:34;30.00;95.30
30097;DHT22;16915;51.466;3.610;2022-09-03T11:43:12;30.00;94.90
30097;DHT22;16915;51.466;3.610;2022-09-03T11:46:26;29.80;94.90
30097;DHT22;16915;51.466;3.610;2022-09-03T11:49:22;29.10;95.50
30097;DHT22;16915;51.466;3.610;2022-09-03T11:51:39;28.40;96.30
30097;DHT22;16915;51.466;3.610;2022-09-03T11:56:48;28.10;96.90
30097;DHT22;16915;51.466;3.610;2022-09-03T11:59:16;28.90;96.70
30097;DHT22;16915;51.466;3.610;2022-09-03T12:01:57;30.00;95.80
30097;DHT22;16915;51.466;3.610;2022-09-03T12:04:37;31.40;93.80
30097;DHT22;16915;51.466;3.610;2022-09-03T12:12:39;32.90;90.50
30097;DHT22;16915;51.466;3.610;2022-09-03T12:15:16;32.40;91.10
30097;DHT22;16915;51.466;3.610;2022-09-03T12:18:01;31.80;90.60
30097;DHT22;16915;51.466;3.610;2022-09-03T12:23:45;30.30;91.90
30097;DHT22;16915;51.466;3.610;2022-09-03T12:26:20;30.00;92.40
30097;DHT22;16915;51.466;3.610;2022-09-03T12:28:58;30.60;93.20
30097;DHT22;16915;51.466;3.610;2022-09-03T12:31:29;32.30;92.40
30097;DHT22;16915;51.466;3.610;2022-09-03T12:34:06;34.20;90.90
30097;DHT22;16915;51.466;3.610;2022-09-03T12:36:44;35.70;87.00
30097;DHT22;16915;51.466;3.610;2022-09-03T12:39:10;37.00;85.30
30097;DHT22;16915;51.466;3.610;2022-09-03T12:41:37;38.20;82.30
30097;DHT22;16915;51.466;3.610;2022-09-03T12:44:03;39.10;80.80
30097;DHT22;16915;51.466;3.610;2022-09-03T12:46:30;39.60;77.30
30097;DHT22;16915;51.466;3.610;2022-09-03T12:49:05;39.50;75.30
30097;DHT22;16915;51.466;3.610;2022-09-03T12:51:41;39.60;73.00
30097;DHT22;16915;51.466;3.610;2022-09-03T12:54:09;39.30;73.10
30097;DHT22;16915;51.466;3.610;2022-09-03T12:56:42;39.60;73.50
30097;DHT22;16915;51.466;3.610;2022-09-03T12:59:14;39.90;74.00
30097;DHT22;16915;51.466;3.610;2022-09-03T13:01:47;38.80;70.30
30097;DHT22;16915;51.466;3.610;2022-09-03T13:04:18;36.50;74.40
30097;DHT22;16915;51.466;3.610;2022-09-03T13:06:55;36.80;75.60
30097;DHT22;16915;51.466;3.610;2022-09-03T13:09:25;37.80;71.90
30097;DHT22;16915;51.466;3.610;2022-09-03T13:11:55;37.90;70.80
30097;DHT22;16915;51.466;3.610;2022-09-03T13:14:24;38.00;73.50
30097;DHT22;16915;51.466;3.610;2022-09-03T13:22:45;39.50;69.90
30097;DHT22;16915;51.466;3.610;2022-09-03T13:28:16;38.00;70.10
30097;DHT22;16915;51.466;3.610;2022-09-03T13:38:50;37.40;69.50
30097;DHT22;16915;51.466;3.610;2022-09-03T13:44:02;33.70;73.40
30097;DHT22;16915;51.466;3.610;2022-09-03T13:46:39;32.90;76.00
30097;DHT22;16915;51.466;3.610;2022-09-03T13:54:58;36.10;73.60
30097;DHT22;16915;51.466;3.610;2022-09-03T13:58:40;36.80;71.60
30097;DHT22;16915;51.466;3.610;2022-09-03T14:00:43;36.10;70.10
30097;DHT22;16915;51.466;3.610;2022-09-03T14:03:52;34.90;72.10
30097;DHT22;16915;51.466;3.610;2022-09-03T14:06:45;33.90;73.90
30097;DHT22;16915;51.466;3.610;2022-09-03T14:12:33;31.80;76.60
30097;DHT22;16915;51.466;3.610;2022-09-03T14:15:25;31.00;78.60
30097;DHT22;16915;51.466;3.610;2022-09-03T14:18:22;30.60;79.10
30097;DHT22;16915;51.466;3.610;2022-09-03T14:20:58;30.50;79.90
30097;DHT22;16915;51.466;3.610;2022-09-03T14:23:44;30.60;80.20
30097;DHT22;16915;51.466;3.610;2022-09-03T14:26:55;30.50;80.10
30097;DHT22;16915;51.466;3.610;2022-09-03T14:29:31;30.50;80.30
30097;DHT22;16915;51.466;3.610;2022-09-03T14:32:14;30.40;80.30
30097;DHT22;16915;51.466;3.610;2022-09-03T14:40:30;30.30;80.70
30097;DHT22;16915;51.466;3.610;2022-09-03T14:52:11;30.10;80.80
30097;DHT22;16915;51.466;3.610;2022-09-03T14:54:44;30.00;81.50
30097;DHT22;16915;51.466;3.610;2022-09-03T14:58:02;30.00;82.00
30097;DHT22;16915;51.466;3.610;2022-09-03T15:01:01;30.00;82.40
30097;DHT22;16915;51.466;3.610;2022-09-03T15:11:53;30.10;82.30
30097;DHT22;16915;51.466;3.610;2022-09-03T15:14:33;30.50;81.10
30097;DHT22;16915;51.466;3.610;2022-09-03T15:17:19;31.10;80.40
30097;DHT22;16915;51.466;3.610;2022-09-03T15:34:43;29.70;82.00
30097;DHT22;16915;51.466;3.610;2022-09-03T15:37:42;29.50;81.70
30097;DHT22;16915;51.466;3.610;2022-09-03T15:42:52;29.50;84.30
30097;DHT22;16915;51.466;3.610;2022-09-03T15:48:26;29.00;85.20
30097;DHT22;16915;51.466;3.610;2022-09-03T15:54:22;28.40;87.70
30097;DHT22;16915;51.466;3.610;2022-09-03T15:59:27;28.10;88.70
30097;DHT22;16915;51.466;3.610;2022-09-03T16:02:06;27.80;88.70
30097;DHT22;16915;51.466;3.610;2022-09-03T16:05:02;27.60;89.60
30097;DHT22;16915;51.466;3.610;2022-09-03T16:11:09;27.30;90.40
30097;DHT22;16915;51.466;3.610;2022-09-03T16:13:54;27.20;90.40
30097;DHT22;16915;51.466;3.610;2022-09-03T16:16:28;27.00;90.40
30097;DHT22;16915;51.466;3.610;2022-09-03T16:22:04;26.70;90.70
30097;DHT22;16915;51.466;3.610;2022-09-03T16:24:46;26.50;91.00
30097;DHT22;16915;51.466;3.610;2022-09-03T16:27:22;26.30;91.20
30097;DHT22;16915;51.466;3.610;2022-09-03T16:38:09;26.30;91.70
30097;DHT22;16915;51.466;3.610;2022-09-03T16:40:47;26.30;91.50
30097;DHT22;16915;51.466;3.610;2022-09-03T16:46:32;26.30;91.60
30097;DHT22;16915;51.466;3.610;2022-09-03T16:49:09;26.20;91.70
30097;DHT22;16915;51.466;3.610;2022-09-03T16:52:29;25.80;94.10
30097;DHT22;16915;51.466;3.610;2022-09-03T17:03:45;24.60;99.90
30097;DHT22;16915;51.466;3.610;2022-09-03T17:17:39;25.50;99.90
30097;DHT22;16915;51.466;3.610;2022-09-03T17:20:10;25.70;99.90
30097;DHT22;16915;51.466;3.610;2022-09-03T17:25:34;25.70;99.90
30097;DHT22;16915;51.466;3.610;2022-09-03T17:28:16;25.70;99.90
30097;DHT22;16915;51.466;3.610;2022-09-03T17:30:56;25.50;99.90
30097;DHT22;16915;51.466;3.610;2022-09-03T17:33:51;25.40;99.90
30097;DHT22;16915;51.466;3.610;2022-09-03T17:36:23;25.30;99.90
30097;DHT22;16915;51.466;3.610;2022-09-03T17:42:16;25.10;99.90
30097;DHT22;16915;51.466;3.610;2022-09-03T17:52:40;24.80;99.90
30097;DHT22;16915;51.466;3.610;2022-09-03T17:57:51;24.60;99.90
30097;DHT22;16915;51.466;3.610;2022-09-03T18:00:52;24.50;99.90
30097;DHT22;16915;51.466;3.610;2022-09-03T18:09:04;24.50;99.90
30097;DHT22;16915;51.466;3.610;2022-09-03T18:11:39;24.40;99.90
30097;DHT22;16915;51.466;3.610;2022-09-03T18:16:34;24.20;99.90
30097;DHT22;16915;51.466;3.610;2022-09-03T18:19:09;24.00;99.90
30097;DHT22;16915;51.466;3.610;2022-09-03T18:21:45;23.90;99.90
30097;DHT22;16915;51.466;3.610;2022-09-03T18:24:57;23.80;99.90
30097;DHT22;16915;51.466;3.610;2022-09-03T18:27:48;23.70;99.90
30097;DHT22;16915;51.466;3.610;2022-09-03T18:30:34;23.60;99.90
30097;DHT22;16915;51.466;3.610;2022-09-03T18:33:23;23.50;99.90
30097;DHT22;16915;51.466;3.610;2022-09-03T18:36:07;23.40;99.90
30097;DHT22;16915;51.466;3.610;2022-09-03T18:39:15;23.40;99.90
30097;DHT22;16915;51.466;3.610;2022-09-03T18:42:17;23.40;99.90
30097;DHT22;16915;51.466;3.610;2022-09-03T18:45:36;23.30;99.90
30097;DHT22;16915;51.466;3.610;2022-09-03T18:55:16;23.10;99.90
30097;DHT22;16915;51.466;3.610;2022-09-03T18:58:24;23.10;99.90
30097;DHT22;16915;51.466;3.610;2022-09-03T19:01:44;23.00;99.90
30097;DHT22;16915;51.466;3.610;2022-09-03T19:04:55;22.90;99.90
30097;DHT22;16915;51.466;3.610;2022-09-03T19:10:42;22.70;99.90
30097;DHT22;16915;51.466;3.610;2022-09-03T19:13:35;22.70;99.90
30097;DHT22;16915;51.466;3.610;2022-09-03T19:16:31;22.50;99.90
30097;DHT22;16915;51.466;3.610;2022-09-03T19:22:40;22.40;99.90
30097;DHT22;16915;51.466;3.610;2022-09-03T19:25:37;22.40;99.90
30097;DHT22;16915;51.466;3.610;2022-09-03T19:28:27;22.30;99.90
30097;DHT22;16915;51.466;3.610;2022-09-03T19:31:40;22.30;99.90
30097;DHT22;16915;51.466;3.610;2022-09-03T19:34:41;22.20;99.90
30097;DHT22;16915;51.466;3.610;2022-09-03T19:43:38;22.10;99.90
30097;DHT22;16915;51.466;3.610;2022-09-03T19:52:54;22.00;99.90
30097;DHT22;16915;51.466;3.610;2022-09-03T19:55:46;21.90;99.90
30097;DHT22;16915;51.466;3.610;2022-09-03T19:58:32;21.90;99.90
30097;DHT22;16915;51.466;3.610;2022-09-03T20:01:19;21.90;99.90
30097;DHT22;16915;51.466;3.610;2022-09-03T20:04:13;21.90;99.90
30097;DHT22;16915;51.466;3.610;2022-09-03T20:06:59;21.90;99.90
30097;DHT22;16915;51.466;3.610;2022-09-03T20:09:46;21.90;99.90
30097;DHT22;16915;51.466;3.610;2022-09-03T20:12:36;21.90;99.90
30097;DHT22;16915;51.466;3.610;2022-09-03T20:15:07;21.90;99.90
30097;DHT22;16915;51.466;3.610;2022-09-03T20:17:59;21.90;99.90
30097;DHT22;16915;51.466;3.610;2022-09-03T20:21:11;21.90;99.90
30097;DHT22;16915;51.466;3.610;2022-09-03T20:46:47;21.80;99.90
30097;DHT22;16915;51.466;3.610;2022-09-03T20:52:20;21.80;99.90
30097;DHT22;16915;51.466;3.610;2022-09-03T20:55:01;21.80;99.90
30097;DHT22;16915;51.466;3.610;2022-09-03T20:57:48;21.80;99.90
30097;DHT22;16915;51.466;3.610;2022-09-03T21:00:20;21.80;99.90
30097;DHT22;16915;51.466;3.610;2022-09-03T21:03:43;21.70;99.90
30097;DHT22;16915;51.466;3.610;2022-09-03T21:09:06;21.60;99.90